Terminal Aerodrome Forecast
Issued by NWS

Home | Current Version | Previous Version | Text Only | Print | Product List | Glossary On
Versions: 1 2 3 4 5 6 7 8 9 10 11 12 13 14
642
FTUS42 KTBW 062332
TAFPGD
TAF
KPGD 062332Z 0700/0724 31011KT P6SM SKC
     FM070200 31006KT P6SM SKC
     FM071000 35005KT P6SM SKC
     FM071400 01010KT P6SM SKC
     FM071800 34011G17KT P6SM SKC=

USA.gov is the U.S. government's official web portal to all federal, state and local government web resources and services.